Time;durP1;ratioP1;P1;durP2;ratioP2;P2;SDS_P1;SDS_P2;PMS_P1;PMS_P2;Temp;Humidity;BMP_temperature;BMP_pressure;BME280_temperature;BME280_humidity;BME280_pressure;Samples;Min_cycle;Max_cycle;Signal;HPM_P1;HPM_P2
2023/10/08 00:02:30;;;;;;;;;;;;;;;19.17;58.91;100318.50;10325387;28;1918;-73
2023/10/08 00:07:27;;;;;;;;;;;;;;;19.18;58.75;100317.63;10324445;28;906;-73
2023/10/08 00:12:23;;;;;;;;;;;;;;;19.17;59.05;100305.31;10325638;28;957;-73
2023/10/08 00:17:19;;;;;;;;;;;;;;;19.16;58.84;100311.53;10327593;28;834;-73
2023/10/08 00:22:18;;;;;;;;;;;;;;;19.16;58.82;100306.22;10332857;28;1961;-72
2023/10/08 00:27:17;;;;;;;;;;;;;;;19.15;58.79;100312.44;10314653;28;1200;-73
2023/10/08 00:32:13;;;;;;;;;;;;;;;19.15;58.80;100315.94;10331696;28;926;-72
2023/10/08 00:37:10;;;;;;;;;;;;;;;19.15;58.92;100328.28;10331502;28;894;-73
2023/10/08 00:42:07;;;;;;;;;;;;;;;19.15;58.98;100323.88;10331298;28;1878;-73
2023/10/08 00:47:06;;;;;;;;;;;;;;;19.15;58.85;100345.03;10331849;28;1469;-72
2023/10/08 00:57:05;;;;;;;;;;;;;;;19.14;58.83;100342.44;10331553;28;821;-73
2023/10/08 01:02:06;;;;;;;;;;;;;;;19.14;58.82;100342.44;10330583;28;1910;-73
2023/10/08 01:07:16;;;;;;;;;;;;;;;19.13;58.91;100349.50;10331048;28;814;-73
2023/10/08 01:12:13;;;;;;;;;;;;;;;19.13;58.90;100343.34;10330890;28;857;-72
2023/10/08 01:17:09;;;;;;;;;;;;;;;19.12;58.90;100342.47;10330108;28;822;-73
2023/10/08 01:22:16;;;;;;;;;;;;;;;19.12;58.91;100341.63;10329206;28;1949;-72
2023/10/08 01:27:12;;;;;;;;;;;;;;;19.11;58.98;100350.47;10329516;28;794;-73
2023/10/08 01:32:11;;;;;;;;;;;;;;;19.12;58.68;100378.59;10330267;28;929;-72
2023/10/08 01:37:12;;;;;;;;;;;;;;;19.13;58.79;100390.91;10329208;28;981;-73
2023/10/08 01:42:15;;;;;;;;;;;;;;;19.11;58.88;100380.41;10330088;28;1894;-73
2023/10/08 01:47:11;;;;;;;;;;;;;;;19.12;58.85;100395.31;10329170;28;1375;-72
2023/10/08 01:52:13;;;;;;;;;;;;;;;19.11;58.86;100392.75;10329363;28;837;-73
2023/10/08 01:57:09;;;;;;;;;;;;;;;19.11;58.86;100379.53;10328875;28;781;-73
2023/10/08 02:02:06;;;;;;;;;;;;;;;19.10;58.96;100383.97;10328847;28;1965;-73
2023/10/08 02:07:03;;;;;;;;;;;;;;;19.10;58.81;100386.63;10328692;28;834;-73
2023/10/08 02:11:59;;;;;;;;;;;;;;;19.10;58.93;100383.97;10327963;28;921;-72
2023/10/08 02:16:56;;;;;;;;;;;;;;;19.10;58.74;100397.19;10328426;28;859;-73
2023/10/08 02:21:54;;;;;;;;;;;;;;;19.09;58.87;100384.03;10328521;28;1960;-72
2023/10/08 02:26:49;;;;;;;;;;;;;;;19.09;58.91;100378.72;10326787;28;934;-72
2023/10/08 02:31:45;;;;;;;;;;;;;;;19.08;59.02;100374.38;10326646;28;877;-72
2023/10/08 02:36:41;;;;;;;;;;;;;;;19.08;58.81;100366.47;10326954;28;887;-73
2023/10/08 02:41:41;;;;;;;;;;;;;;;19.06;58.81;100300.44;10326037;28;1893;-73
2023/10/08 02:46:37;;;;;;;;;;;;;;;19.04;58.85;100299.66;10326392;28;1245;-73
2023/10/08 02:51:33;;;;;;;;;;;;;;;19.04;58.84;100263.50;10327101;28;747;-73
2023/10/08 02:56:32;;;;;;;;;;;;;;;19.04;58.97;100283.78;10326381;28;922;-72
2023/10/08 03:01:27;;;;;;;;;;;;;;;19.06;58.79;100326.88;10326228;28;1957;-72
2023/10/08 03:06:23;;;;;;;;;;;;;;;19.07;59.06;100352.34;10325990;28;947;-73
2023/10/08 03:11:24;;;;;;;;;;;;;;;19.08;58.79;100345.31;10326654;28;985;-73
2023/10/08 03:16:27;;;;;;;;;;;;;;;19.05;59.06;100343.66;10325225;28;1247;-73
2023/10/08 03:26:35;;;;;;;;;;;;;;;19.06;59.02;100406.13;10325611;28;974;-73
2023/10/08 03:36:45;;;;;;;;;;;;;;;19.04;59.00;100406.19;10324657;28;837;-73
2023/10/08 03:41:41;;;;;;;;;;;;;;;19.04;58.92;100405.31;10325330;28;1894;-73
2023/10/08 03:46:43;;;;;;;;;;;;;;;19.02;58.91;100394.84;10325266;28;1188;-72
2023/10/08 03:51:39;;;;;;;;;;;;;;;19.02;58.91;100368.41;10329297;28;746;-72
2023/10/08 03:56:36;;;;;;;;;;;;;;;19.02;58.92;100363.13;10333391;28;770;-72
2023/10/08 04:01:33;;;;;;;;;;;;;;;19.01;58.85;100368.47;10333666;28;1905;-73
2023/10/08 04:06:30;;;;;;;;;;;;;;;19.02;59.02;100372.81;10333271;28;824;-73
2023/10/08 04:11:32;;;;;;;;;;;;;;;18.99;59.05;100331.56;10332803;28;870;-73
2023/10/08 04:16:28;;;;;;;;;;;;;;;19.01;59.07;100355.25;10332424;28;981;-72
2023/10/08 04:21:27;;;;;;;;;;;;;;;19.01;58.99;100387.81;10332765;28;1897;-72
2023/10/08 04:26:26;;;;;;;;;;;;;;;19.04;59.01;100408.81;10332076;28;911;-73
2023/10/08 04:31:27;;;;;;;;;;;;;;;19.06;58.86;100406.13;10331947;28;869;-72
2023/10/08 04:36:23;;;;;;;;;;;;;;;19.11;58.74;100413.91;10331661;28;858;-73
2023/10/08 04:41:19;;;;;;;;;;;;;;;19.13;58.89;100405.00;10331498;28;1948;-73
2023/10/08 04:51:34;;;;;;;;;;;;;;;19.18;58.64;100421.53;10330732;28;640;-73
2023/10/08 04:56:33;;;;;;;;;;;;;;;19.19;58.64;100399.47;10332427;28;885;-73
2023/10/08 05:01:40;;;;;;;;;;;;;;;19.21;58.53;100384.41;10329952;28;1975;-72
2023/10/08 05:17:00;;;;;;;;;;;;;;;19.27;58.40;100441.44;10330293;28;833;-73
2023/10/08 05:27:37;;;;;;;;;;;;;;;19.29;58.49;100459.91;10291519;28;1250;-79
2023/10/08 05:33:06;;;;;;;;;;;;;;;19.30;58.55;100467.75;10329673;28;1568;-77
2023/10/08 05:37:52;;;;;;;;;;;;;;;19.31;58.46;100469.50;10327469;28;1552;-74
2023/10/08 05:42:50;;;;;;;;;;;;;;;19.32;58.29;100460.63;10329680;28;1963;-74
2023/10/08 05:48:07;;;;;;;;;;;;;;;19.36;58.45;100456.97;10328686;28;1177;-74
2023/10/08 05:53:02;;;;;;;;;;;;;;;19.37;58.43;100452.53;10328730;28;1685;-74
2023/10/08 05:58:45;;;;;;;;;;;;;;;19.37;58.30;100426.09;10328664;28;767;-76
2023/10/08 06:03:32;;;;;;;;;;;;;;;19.38;58.32;100422.53;10313929;28;1898;-73
2023/10/08 06:08:38;;;;;;;;;;;;;;;19.37;58.38;100450.75;10328000;28;790;-73
2023/10/08 06:13:45;;;;;;;;;;;;;;;19.37;58.40;100463.97;10328432;28;857;-73
2023/10/08 06:18:41;;;;;;;;;;;;;;;19.38;58.39;100443.69;10328365;28;933;-73
2023/10/08 06:23:37;;;;;;;;;;;;;;;19.39;58.36;100464.78;10327545;28;1894;-73
2023/10/08 06:28:36;;;;;;;;;;;;;;;19.40;58.51;100492.94;10328033;28;874;-75
2023/10/08 06:33:33;;;;;;;;;;;;;;;19.40;58.44;100508.78;10327015;28;961;-72
2023/10/08 06:38:30;;;;;;;;;;;;;;;19.41;58.40;100522.88;10326882;28;766;-75
2023/10/08 06:43:26;;;;;;;;;;;;;;;19.41;58.46;100534.31;10327334;28;1953;-74
2023/10/08 06:48:28;;;;;;;;;;;;;;;19.41;58.34;100538.72;10327031;28;1256;-74
2023/10/08 06:53:25;;;;;;;;;;;;;;;19.42;58.29;100532.53;10325857;28;949;-77
2023/10/08 06:58:20;;;;;;;;;;;;;;;19.43;58.22;100563.34;10326909;28;891;-75
2023/10/08 07:03:17;;;;;;;;;;;;;;;19.45;58.41;100566.78;10326184;28;1902;-74
2023/10/08 07:08:14;;;;;;;;;;;;;;;19.43;58.49;100558.91;10326043;28;798;-75
2023/10/08 07:13:10;;;;;;;;;;;;;;;19.46;58.28;100600.22;10325941;28;835;-74
2023/10/08 07:18:09;;;;;;;;;;;;;;;19.46;58.37;100616.09;10326384;28;870;-76
2023/10/08 07:23:09;;;;;;;;;;;;;;;19.47;58.32;100600.19;10326717;28;1957;-70
2023/10/08 07:28:06;;;;;;;;;;;;;;;19.48;58.43;100625.69;10325159;28;894;-71
2023/10/08 07:33:03;;;;;;;;;;;;;;;19.47;58.43;100623.97;10325281;28;997;-71
2023/10/08 07:37:59;;;;;;;;;;;;;;;19.47;58.46;100621.34;10325289;28;978;-75
2023/10/08 07:43:08;;;;;;;;;;;;;;;19.48;58.42;100624.84;10325117;28;1943;-69
2023/10/08 07:48:09;;;;;;;;;;;;;;;19.47;58.51;100631.06;10325350;28;1438;-70
2023/10/08 07:53:05;;;;;;;;;;;;;;;19.49;58.56;100634.50;10325085;28;798;-72
2023/10/08 07:58:04;;;;;;;;;;;;;;;19.42;58.68;100615.34;10325592;28;907;-69
2023/10/08 08:03:04;;;;;;;;;;;;;;;19.39;58.85;100630.47;10324138;28;1910;-69
2023/10/08 08:08:05;;;;;;;;;;;;;;;19.37;58.90;100640.25;10324602;28;981;-69
2023/10/08 08:13:01;;;;;;;;;;;;;;;19.37;58.89;100635.81;10321242;28;1124;-69
2023/10/08 08:17:57;;;;;;;;;;;;;;;19.37;58.88;100637.59;10323805;28;1004;-69
2023/10/08 08:22:54;;;;;;;;;;;;;;;19.37;58.92;100651.66;10323518;28;1894;-69
2023/10/08 08:27:52;;;;;;;;;;;;;;;19.36;58.75;100659.63;10324165;28;862;-69
2023/10/08 08:32:48;;;;;;;;;;;;;;;19.34;58.98;100674.72;10323480;28;839;-72
2023/10/08 08:37:46;;;;;;;;;;;;;;;19.33;58.80;100665.91;10325491;28;885;-69
2023/10/08 08:42:42;;;;;;;;;;;;;;;19.33;58.88;100668.53;10330026;28;1893;-69
2023/10/08 08:47:40;;;;;;;;;;;;;;;19.34;58.81;100695.88;10331568;28;1140;-69
2023/10/08 08:52:39;;;;;;;;;;;;;;;19.33;58.86;100679.13;10330783;28;1140;-69
2023/10/08 08:57:35;;;;;;;;;;;;;;;19.33;58.95;100687.03;10331222;28;837;-69
2023/10/08 09:02:32;;;;;;;;;;;;;;;19.33;58.81;100694.13;10329704;28;1902;-73
2023/10/08 09:07:28;;;;;;;;;;;;;;;19.32;58.85;100701.19;10330827;28;809;-69
2023/10/08 09:12:24;;;;;;;;;;;;;;;19.32;58.88;100682.69;10329392;28;893;-70
2023/10/08 09:17:23;;;;;;;;;;;;;;;19.33;58.82;100684.41;10331006;28;893;-69
2023/10/08 09:22:19;;;;;;;;;;;;;;;19.31;58.97;100715.34;10329902;28;1890;-70
2023/10/08 09:27:15;;;;;;;;;;;;;;;19.29;59.03;100726.88;10328734;28;858;-69
2023/10/08 09:32:11;;;;;;;;;;;;;;;19.25;58.91;100745.47;10329255;28;837;-70
2023/10/08 09:37:07;;;;;;;;;;;;;;;19.25;58.81;100745.47;10328359;28;1092;-69
2023/10/08 09:42:03;;;;;;;;;;;;;;;19.25;58.75;100728.75;10328359;28;1905;-69
2023/10/08 09:46:59;;;;;;;;;;;;;;;19.24;58.88;100729.66;10328686;28;1148;-69
2023/10/08 09:51:55;;;;;;;;;;;;;;;19.25;58.61;100739.31;10328465;28;842;-69
2023/10/08 09:56:52;;;;;;;;;;;;;;;19.25;58.75;100736.69;10327709;28;1049;-75
2023/10/08 10:01:48;;;;;;;;;;;;;;;19.26;58.62;100730.50;10327209;28;1906;-74
2023/10/08 10:06:44;;;;;;;;;;;;;;;19.26;58.64;100714.63;10327857;28;786;-74
2023/10/08 10:11:40;;;;;;;;;;;;;;;19.26;58.51;100717.28;10327177;28;1274;-74
2023/10/08 10:16:36;;;;;;;;;;;;;;;19.27;58.63;100717.19;10327797;28;1011;-74
2023/10/08 10:21:32;;;;;;;;;;;;;;;19.29;58.53;100718.94;10326820;28;1902;-74
2023/10/08 10:26:30;;;;;;;;;;;;;;;19.27;58.56;100719.84;10327243;28;927;-75
2023/10/08 10:31:26;;;;;;;;;;;;;;;19.26;58.73;100746.34;10326890;28;918;-75
2023/10/08 10:36:22;;;;;;;;;;;;;;;19.23;58.87;100747.31;10326318;28;885;-75
2023/10/08 10:41:19;;;;;;;;;;;;;;;19.22;59.02;100735.00;10326551;28;1956;-74
2023/10/08 10:46:30;;;;;;;;;;;;;;;19.21;59.03;100737.72;10326909;28;1050;-74
2023/10/08 10:51:26;;;;;;;;;;;;;;;19.21;59.08;100743.00;10326551;28;775;-74
2023/10/08 10:56:31;;;;;;;;;;;;;;;19.21;59.14;100732.44;10326007;28;1158;-75
2023/10/08 11:01:29;;;;;;;;;;;;;;;19.19;59.25;100736.88;10325296;28;1914;-75
2023/10/08 11:06:25;;;;;;;;;;;;;;;19.16;59.33;100740.50;10326068;28;832;-75
2023/10/08 11:11:27;;;;;;;;;;;;;;;19.15;59.14;100730.84;10326438;28;846;-75
2023/10/08 11:16:23;;;;;;;;;;;;;;;19.15;59.01;100727.31;10325013;28;855;-74
2023/10/08 11:21:25;;;;;;;;;;;;;;;19.15;59.15;100712.34;10324813;28;1898;-75
2023/10/08 11:26:31;;;;;;;;;;;;;;;19.16;59.05;100700.00;10325375;28;838;-74
2023/10/08 11:31:27;;;;;;;;;;;;;;;19.17;59.21;100709.63;10324535;28;978;-74
2023/10/08 11:36:33;;;;;;;;;;;;;;;19.15;59.21;100701.78;10325179;28;850;-75
2023/10/08 11:41:29;;;;;;;;;;;;;;;19.15;59.35;100711.47;10325529;28;2010;-75
2023/10/08 11:46:38;;;;;;;;;;;;;;;19.14;59.42;100709.75;10324540;28;1227;-75
2023/10/08 11:51:34;;;;;;;;;;;;;;;19.13;59.50;100713.31;10324814;28;851;-76
2023/10/08 11:56:30;;;;;;;;;;;;;;;19.13;59.63;100700.97;10324481;28;889;-75
2023/10/08 12:01:27;;;;;;;;;;;;;;;19.12;59.50;100707.16;10324674;28;1949;-74
2023/10/08 12:06:24;;;;;;;;;;;;;;;19.14;59.65;100693.88;10324554;28;854;-77
2023/10/08 12:11:22;;;;;;;;;;;;;;;19.14;59.63;100688.59;10326605;28;826;-75
2023/10/08 12:16:20;;;;;;;;;;;;;;;19.14;59.50;100688.59;10332286;28;882;-74
2023/10/08 12:21:17;;;;;;;;;;;;;;;19.10;59.76;100693.16;10332744;28;1947;-74
2023/10/08 12:26:15;;;;;;;;;;;;;;;19.09;59.76;100688.75;10331966;28;906;-74
2023/10/08 12:31:11;;;;;;;;;;;;;;;19.10;59.86;100689.63;10332236;28;882;-75
2023/10/08 12:36:13;;;;;;;;;;;;;;;19.10;59.82;100682.56;10332137;28;934;-74
2023/10/08 12:41:12;;;;;;;;;;;;;;;19.10;60.04;100679.03;10331209;28;1953;-74
2023/10/08 12:46:13;;;;;;;;;;;;;;;19.08;59.97;100662.41;10331697;28;1597;-73
2023/10/08 12:51:11;;;;;;;;;;;;;;;19.06;59.75;100667.72;10290256;28;878;-74
2023/10/08 12:56:07;;;;;;;;;;;;;;;19.05;59.83;100656.28;10290144;28;933;-74
2023/10/08 13:01:03;;;;;;;;;;;;;;;19.08;59.91;100641.25;10290660;28;1971;-74
2023/10/08 13:06:14;;;;;;;;;;;;;;;19.09;59.76;100642.97;10290470;28;880;-74
2023/10/08 13:11:11;;;;;;;;;;;;;;;19.11;59.80;100639.38;10289764;28;815;-74
2023/10/08 13:16:09;;;;;;;;;;;;;;;19.13;59.79;100631.41;10289903;28;869;-74
2023/10/08 13:21:06;;;;;;;;;;;;;;;19.16;59.60;100629.50;10290664;28;1961;-75
2023/10/08 13:26:06;;;;;;;;;;;;;;;19.18;59.69;100610.97;10289239;28;783;-75
2023/10/08 13:31:09;;;;;;;;;;;;;;;19.22;59.56;100604.63;10286637;28;1165;-75
2023/10/08 13:36:08;;;;;;;;;;;;;;;19.26;59.46;100596.53;10288409;28;902;-75
2023/10/08 13:41:05;;;;;;;;;;;;;;;19.30;59.53;100591.13;10287918;28;1890;-74
2023/10/08 13:46:04;;;;;;;;;;;;;;;19.30;59.62;100578.78;10288354;28;1020;-74
2023/10/08 13:51:00;;;;;;;;;;;;;;;19.36;59.60;100582.97;10326432;28;1409;-74
2023/10/08 13:55:56;;;;;;;;;;;;;;;19.37;59.37;100590.00;10328630;28;871;-74
2023/10/08 14:00:52;;;;;;;;;;;;;;;19.37;59.52;100579.44;10328467;28;1963;-74
2023/10/08 14:05:51;;;;;;;;;;;;;;;19.37;59.34;100588.22;10328529;28;1588;-74
2023/10/08 14:10:48;;;;;;;;;;;;;;;19.41;59.36;100589.84;10328200;28;867;-74
2023/10/08 14:15:47;;;;;;;;;;;;;;;19.43;59.59;100569.47;10328603;28;881;-74
2023/10/08 14:20:46;;;;;;;;;;;;;;;19.44;59.54;100567.69;10327920;28;1964;-74
2023/10/08 14:25:44;;;;;;;;;;;;;;;19.45;59.63;100561.50;10326993;28;1364;-74
2023/10/08 14:30:40;;;;;;;;;;;;;;;19.46;59.55;100550.84;10328007;28;875;-73
2023/10/08 14:46:09;;;;;;;;;;;;;;;19.45;59.75;100587.94;10326646;28;624;-74
2023/10/08 14:51:06;;;;;;;;;;;;;;;19.45;59.63;100587.94;10327110;28;1336;-74
2023/10/08 14:56:05;;;;;;;;;;;;;;;19.47;59.74;100547.31;10327124;28;891;-73
2023/10/08 15:01:01;;;;;;;;;;;;;;;19.47;59.67;100541.16;10326948;28;1965;-74
2023/10/08 15:05:57;;;;;;;;;;;;;;;19.47;59.53;100560.53;10325517;28;896;-74
2023/10/08 15:10:53;;;;;;;;;;;;;;;19.49;59.73;100584.25;10326119;28;909;-74
2023/10/08 15:15:50;;;;;;;;;;;;;;;19.47;59.84;100557.03;10326679;28;819;-74
2023/10/08 15:20:46;;;;;;;;;;;;;;;19.46;59.60;100582.56;10325699;28;1890;-73
2023/10/08 15:25:42;;;;;;;;;;;;;;;19.46;59.82;100566.72;10326327;28;867;-78
2023/10/08 15:30:39;;;;;;;;;;;;;;;19.45;59.89;100521.84;10325616;28;805;-78
2023/10/08 15:35:35;;;;;;;;;;;;;;;19.45;59.92;100472.47;10325492;28;810;-78
2023/10/08 15:40:33;;;;;;;;;;;;;;;19.49;59.68;100540.19;10324836;28;951;-73
2023/10/08 15:45:29;;;;;;;;;;;;;;;19.49;59.72;100536.66;10326020;28;1910;-74
2023/10/08 15:50:27;;;;;;;;;;;;;;;19.50;59.88;100527.81;10338724;28;1717;-74
2023/10/08 15:55:23;;;;;;;;;;;;;;;19.50;59.77;100538.41;10339530;28;883;-73
2023/10/08 16:00:18;;;;;;;;;;;;;;;19.51;60.02;100558.63;10338621;28;841;-75
2023/10/08 16:05:16;;;;;;;;;;;;;;;19.51;59.89;100537.47;10338456;28;1914;-74
2023/10/08 16:10:12;;;;;;;;;;;;;;;19.51;59.78;100557.75;10338977;28;863;-74
2023/10/08 16:15:07;;;;;;;;;;;;;;;19.48;59.97;100522.56;10338407;28;964;-74
2023/10/08 16:20:13;;;;;;;;;;;;;;;19.49;59.96;100550.75;10337663;28;849;-74
2023/10/08 16:25:12;;;;;;;;;;;;;;;19.49;60.01;100532.25;10338125;28;1890;-73
2023/10/08 16:30:11;;;;;;;;;;;;;;;19.50;60.09;100527.81;10338907;28;945;-74
2023/10/08 16:35:07;;;;;;;;;;;;;;;19.51;60.08;100518.97;10337350;28;1156;-74
2023/10/08 16:40:04;;;;;;;;;;;;;;;19.51;60.06;100528.69;10338498;28;806;-75
2023/10/08 16:45:00;;;;;;;;;;;;;;;19.49;60.39;100526.97;10337770;28;1952;-73
2023/10/08 16:49:56;;;;;;;;;;;;;;;19.50;60.29;100522.53;10338710;28;1415;-73
2023/10/08 16:54:53;;;;;;;;;;;;;;;19.52;60.13;100525.09;10336990;28;1147;-74
2023/10/08 16:59:49;;;;;;;;;;;;;;;19.54;60.29;100523.25;10332417;28;888;-74
2023/10/08 17:04:45;;;;;;;;;;;;;;;19.53;60.26;100521.56;10330809;28;1913;-74
2023/10/08 17:09:41;;;;;;;;;;;;;;;19.53;60.25;100521.56;10330736;28;819;-74
2023/10/08 17:14:37;;;;;;;;;;;;;;;19.52;60.30;100509.22;10331324;28;865;-74
2023/10/08 17:19:32;;;;;;;;;;;;;;;19.53;60.30;100506.53;10329770;28;1154;-74
2023/10/08 17:24:28;;;;;;;;;;;;;;;19.53;60.23;100500.41;10330170;28;1898;-73
2023/10/08 17:29:25;;;;;;;;;;;;;;;19.53;60.18;100489.81;10330044;28;942;-74
2023/10/08 17:34:22;;;;;;;;;;;;;;;19.54;60.10;100475.66;10329811;28;811;-73
2023/10/08 17:39:18;;;;;;;;;;;;;;;19.54;60.31;100478.31;10330541;28;1717;-74
2023/10/08 17:44:14;;;;;;;;;;;;;;;19.53;60.28;100471.31;10330191;28;1890;-74
2023/10/08 17:49:10;;;;;;;;;;;;;;;19.52;60.39;100472.22;10329857;28;1502;-74
2023/10/08 17:54:10;;;;;;;;;;;;;;;19.53;60.35;100477.47;10329059;28;784;-73
2023/10/08 17:59:11;;;;;;;;;;;;;;;19.55;60.44;100470.34;10328770;28;890;-74
2023/10/08 18:04:10;;;;;;;;;;;;;;;19.54;60.56;100468.59;10327906;28;1909;-73
2023/10/08 18:09:09;;;;;;;;;;;;;;;19.54;60.31;100457.16;10328853;28;810;-73
2023/10/08 18:14:05;;;;;;;;;;;;;;;19.53;60.38;100453.66;10328815;28;889;-74
2023/10/08 18:19:01;;;;;;;;;;;;;;;19.54;60.36;100441.28;10327994;28;835;-74
2023/10/08 18:23:58;;;;;;;;;;;;;;;19.55;60.41;100445.69;10328347;28;1898;-74
2023/10/08 18:28:54;;;;;;;;;;;;;;;19.56;60.47;100445.59;10327567;28;887;-73
2023/10/08 18:33:50;;;;;;;;;;;;;;;19.57;60.45;100438.53;10327996;28;843;-74
2023/10/08 18:38:46;;;;;;;;;;;;;;;19.56;60.39;100434.16;10327951;28;888;-74
2023/10/08 18:43:43;;;;;;;;;;;;;;;19.56;60.53;100434.16;10327622;28;1898;-74
2023/10/08 18:48:39;;;;;;;;;;;;;;;19.55;60.46;100422.72;10326325;28;1459;-73
2023/10/08 18:53:35;;;;;;;;;;;;;;;19.56;60.37;100415.66;10326616;28;894;-73
2023/10/08 18:58:30;;;;;;;;;;;;;;;19.57;60.63;100405.03;10326541;28;773;-74
2023/10/08 19:03:26;;;;;;;;;;;;;;;19.57;60.41;100396.22;10327189;28;1980;-73
2023/10/08 19:08:23;;;;;;;;;;;;;;;19.56;60.57;100398.00;10326873;28;900;-74
2023/10/08 19:13:19;;;;;;;;;;;;;;;19.55;60.50;100379.56;10326064;28;905;-74
2023/10/08 19:18:15;;;;;;;;;;;;;;;19.55;60.34;100377.78;10325976;28;870;-74
2023/10/08 19:23:11;;;;;;;;;;;;;;;19.56;60.52;100371.56;10325230;28;1955;-74
2023/10/08 19:28:08;;;;;;;;;;;;;;;19.58;60.57;100369.72;10325116;28;1008;-74
2023/10/08 19:33:04;;;;;;;;;;;;;;;19.57;60.42;100360.06;10325507;28;979;-74
2023/10/08 19:37:59;;;;;;;;;;;;;;;19.56;60.28;100350.41;10325527;28;855;-74
2023/10/08 19:42:55;;;;;;;;;;;;;;;19.54;60.30;100349.59;10325355;28;1870;-74
2023/10/08 19:47:51;;;;;;;;;;;;;;;19.52;60.40;100338.25;10325949;28;1252;-70
2023/10/08 19:52:49;;;;;;;;;;;;;;;19.49;60.55;100336.59;10325197;28;970;-74
2023/10/08 19:57:46;;;;;;;;;;;;;;;19.46;60.41;100339.34;10324410;28;1291;-74
2023/10/08 20:02:42;;;;;;;;;;;;;;;19.45;60.55;100342.06;10325490;28;1918;-74
2023/10/08 20:07:38;;;;;;;;;;;;;;;19.44;60.58;100341.22;10324924;28;779;-74
2023/10/08 20:12:34;;;;;;;;;;;;;;;19.42;60.59;100337.75;10324853;28;1016;-74
2023/10/08 20:17:30;;;;;;;;;;;;;;;19.40;60.70;100325.53;10324619;28;879;-74
2023/10/08 20:22:26;;;;;;;;;;;;;;;19.39;60.66;100324.66;10324637;28;1898;-74
2023/10/08 20:27:22;;;;;;;;;;;;;;;19.38;60.60;100312.34;10324476;28;869;-74
2023/10/08 20:32:18;;;;;;;;;;;;;;;19.34;60.60;100310.78;10324476;28;779;-74
2023/10/08 20:37:15;;;;;;;;;;;;;;;19.34;60.67;100315.22;10332028;28;869;-74
2023/10/08 20:42:11;;;;;;;;;;;;;;;19.31;60.70;100292.41;10331759;28;1957;-74
2023/10/08 20:47:07;;;;;;;;;;;;;;;19.30;60.49;100298.59;10330993;28;1428;-73
2023/10/08 20:52:03;;;;;;;;;;;;;;;19.29;60.64;100296.88;10331492;28;963;-74
2023/10/08 20:56:59;;;;;;;;;;;;;;;19.27;60.63;100288.16;10330711;28;806;-74
2023/10/08 21:01:56;;;;;;;;;;;;;;;19.24;60.61;100285.66;10330446;28;1971;-74
2023/10/08 21:06:52;;;;;;;;;;;;;;;19.23;60.83;100268.03;10330845;28;902;-74
2023/10/08 21:11:48;;;;;;;;;;;;;;;19.22;60.46;100285.69;10331306;28;796;-74
2023/10/08 21:16:44;;;;;;;;;;;;;;;19.22;60.63;100292.75;10330418;28;771;-74
2023/10/08 21:21:40;;;;;;;;;;;;;;;19.23;60.55;100279.50;10330934;28;1898;-73
2023/10/08 21:26:36;;;;;;;;;;;;;;;19.19;60.53;100284.97;10330211;28;917;-74
2023/10/08 21:31:32;;;;;;;;;;;;;;;19.17;60.59;100273.59;10330504;28;876;-74
2023/10/08 21:36:28;;;;;;;;;;;;;;;19.14;60.73;100277.22;10330251;28;847;-74
2023/10/08 21:41:24;;;;;;;;;;;;;;;19.14;60.60;100279.84;10329730;28;1951;-74
2023/10/08 21:46:21;;;;;;;;;;;;;;;19.11;60.66;100277.34;10328560;28;1152;-74
2023/10/08 21:51:17;;;;;;;;;;;;;;;19.10;60.80;100267.72;10330169;28;922;-73
2023/10/08 21:56:13;;;;;;;;;;;;;;;19.08;60.78;100269.56;10329017;28;868;-73
2023/10/08 22:01:09;;;;;;;;;;;;;;;19.05;60.80;100259.97;10329376;28;1902;-73
2023/10/08 22:06:05;;;;;;;;;;;;;;;19.03;60.85;100258.31;10328083;28;893;-73
2023/10/08 22:11:01;;;;;;;;;;;;;;;19.00;60.75;100251.38;10329064;28;813;-73
2023/10/08 22:16:13;;;;;;;;;;;;;;;19.00;60.93;100245.22;10328914;28;866;-73
2023/10/08 22:21:13;;;;;;;;;;;;;;;18.98;60.97;100236.50;10328247;28;1886;-73
2023/10/08 22:26:10;;;;;;;;;;;;;;;18.95;61.09;100231.34;10327776;28;890;-74
2023/10/08 22:31:09;;;;;;;;;;;;;;;18.94;60.93;100212.00;10327648;28;849;-73
2023/10/08 22:36:11;;;;;;;;;;;;;;;18.94;61.13;100203.19;10327994;28;823;-73
2023/10/08 22:46:02;;;;;;;;;;;;;;;18.91;61.11;100192.75;10327631;28;780;-73
2023/10/08 22:51:02;;;;;;;;;;;;;;;18.90;61.21;100197.19;10326591;28;1837;-74
2023/10/08 22:55:58;;;;;;;;;;;;;;;18.88;61.15;100188.44;10326406;28;889;-73
2023/10/08 23:00:57;;;;;;;;;;;;;;;18.88;61.25;100175.25;10326430;28;1906;-73
2023/10/08 23:05:52;;;;;;;;;;;;;;;18.88;61.07;100175.25;10327098;28;1717;-74
2023/10/08 23:10:50;;;;;;;;;;;;;;;18.86;61.23;100155.09;10326605;28;811;-73
2023/10/08 23:15:49;;;;;;;;;;;;;;;18.85;61.25;100148.97;10326608;28;802;-73
2023/10/08 23:20:45;;;;;;;;;;;;;;;18.83;61.25;100150.81;10325804;28;891;-73
2023/10/08 23:25:41;;;;;;;;;;;;;;;18.82;61.22;100149.09;10325694;28;1898;-73
2023/10/08 23:30:37;;;;;;;;;;;;;;;18.81;61.34;100135.03;10325777;28;897;-73
2023/10/08 23:35:33;;;;;;;;;;;;;;;18.82;61.20;100141.16;10325597;28;890;-73
2023/10/08 23:40:30;;;;;;;;;;;;;;;18.81;61.39;100147.34;10325447;28;791;-73
2023/10/08 23:45:27;;;;;;;;;;;;;;;18.80;61.35;100151.78;10325149;28;1964;-73
2023/10/08 23:50:30;;;;;;;;;;;;;;;18.80;61.30;100138.56;10326116;28;1196;-74
2023/10/08 23:55:25;;;;;;;;;;;;;;;18.79;61.38;100139.50;10325804;28;868;-73
